sensor_id;sensor_type;location;lat;lon;timestamp;pressure;altitude;pressure_sealevel;temperature;humidity
18014;BME280;9132;47.946;10.394;2024-02-16T00:00:52;93937.28;;;6.55;100.00
18014;BME280;9132;47.946;10.394;2024-02-16T00:03:19;93946.25;;;6.60;100.00
18014;BME280;9132;47.946;10.394;2024-02-16T00:05:47;93929.72;;;6.60;100.00
18014;BME280;9132;47.946;10.394;2024-02-16T00:08:18;93937.84;;;6.65;100.00
18014;BME280;9132;47.946;10.394;2024-02-16T00:10:45;93940.13;;;6.68;100.00
18014;BME280;9132;47.946;10.394;2024-02-16T00:13:12;93930.34;;;6.62;100.00
18014;BME280;9132;47.946;10.394;2024-02-16T00:15:38;93933.38;;;6.73;100.00
18014;BME280;9132;47.946;10.394;2024-02-16T00:18:05;93932.19;;;6.76;100.00
18014;BME280;9132;47.946;10.394;2024-02-16T00:20:32;93931.19;;;6.77;100.00
18014;BME280;9132;47.946;10.394;2024-02-16T00:22:59;93931.66;;;6.81;100.00
18014;BME280;9132;47.946;10.394;2024-02-16T00:25:27;93925.25;;;6.83;100.00
18014;BME280;9132;47.946;10.394;2024-02-16T00:27:54;93927.97;;;6.90;100.00
18014;BME280;9132;47.946;10.394;2024-02-16T00:30:21;93916.34;;;6.92;100.00
18014;BME280;9132;47.946;10.394;2024-02-16T00:32:49;93923.69;;;6.97;100.00
18014;BME280;9132;47.946;10.394;2024-02-16T00:35:20;93927.72;;;7.00;100.00
18014;BME280;9132;47.946;10.394;2024-02-16T00:37:47;93930.19;;;7.01;100.00
18014;BME280;9132;47.946;10.394;2024-02-16T00:40:14;93922.31;;;7.01;100.00
18014;BME280;9132;47.946;10.394;2024-02-16T00:42:41;93931.66;;;7.04;100.00
18014;BME280;9132;47.946;10.394;2024-02-16T00:45:08;93935.91;;;7.05;100.00
18014;BME280;9132;47.946;10.394;2024-02-16T00:47:35;93945.56;;;7.04;100.00
18014;BME280;9132;47.946;10.394;2024-02-16T00:50:02;93928.28;;;6.95;100.00
18014;BME280;9132;47.946;10.394;2024-02-16T00:52:30;93942.75;;;7.06;100.00
18014;BME280;9132;47.946;10.394;2024-02-16T00:54:57;93945.94;;;7.01;100.00
18014;BME280;9132;47.946;10.394;2024-02-16T00:57:23;93946.75;;;7.02;100.00
18014;BME280;9132;47.946;10.394;2024-02-16T00:59:51;93940.50;;;7.03;100.00
18014;BME280;9132;47.946;10.394;2024-02-16T01:02:18;93947.19;;;7.05;100.00
18014;BME280;9132;47.946;10.394;2024-02-16T01:04:45;93948.50;;;7.09;100.00
18014;BME280;9132;47.946;10.394;2024-02-16T01:07:12;93944.22;;;7.08;100.00
18014;BME280;9132;47.946;10.394;2024-02-16T01:09:38;93940.97;;;7.06;100.00
18014;BME280;9132;47.946;10.394;2024-02-16T01:12:05;93936.09;;;7.03;100.00
18014;BME280;9132;47.946;10.394;2024-02-16T01:14:32;93937.53;;;7.06;100.00
18014;BME280;9132;47.946;10.394;2024-02-16T01:17:00;93935.53;;;7.08;100.00
18014;BME280;9132;47.946;10.394;2024-02-16T01:19:26;93938.38;;;7.06;100.00
18014;BME280;9132;47.946;10.394;2024-02-16T01:21:53;93939.97;;;7.07;100.00
18014;BME280;9132;47.946;10.394;2024-02-16T01:24:23;93938.16;;;7.08;100.00
18014;BME280;9132;47.946;10.394;2024-02-16T01:26:49;93948.66;;;7.08;100.00
18014;BME280;9132;47.946;10.394;2024-02-16T01:29:16;93934.72;;;7.07;100.00
18014;BME280;9132;47.946;10.394;2024-02-16T01:31:42;93936.53;;;7.07;100.00
18014;BME280;9132;47.946;10.394;2024-02-16T01:34:10;93941.78;;;7.07;100.00
18014;BME280;9132;47.946;10.394;2024-02-16T01:36:37;93938.53;;;7.05;100.00
18014;BME280;9132;47.946;10.394;2024-02-16T01:39:03;93942.59;;;7.07;100.00
18014;BME280;9132;47.946;10.394;2024-02-16T01:41:30;93937.63;;;7.12;100.00
18014;BME280;9132;47.946;10.394;2024-02-16T01:43:57;93939.28;;;7.13;100.00
18014;BME280;9132;47.946;10.394;2024-02-16T01:46:24;93938.28;;;7.14;100.00
18014;BME280;9132;47.946;10.394;2024-02-16T01:48:51;93937.91;;;7.17;100.00
18014;BME280;9132;47.946;10.394;2024-02-16T01:51:23;93941.19;;;7.19;100.00
18014;BME280;9132;47.946;10.394;2024-02-16T01:53:51;93943.63;;;7.21;100.00
18014;BME280;9132;47.946;10.394;2024-02-16T01:56:20;93950.38;;;7.15;100.00
18014;BME280;9132;47.946;10.394;2024-02-16T01:58:47;93948.75;;;7.14;100.00
18014;BME280;9132;47.946;10.394;2024-02-16T02:01:13;93942.41;;;7.09;100.00
18014;BME280;9132;47.946;10.394;2024-02-16T02:03:40;93941.59;;;7.08;100.00
18014;BME280;9132;47.946;10.394;2024-02-16T02:06:06;93951.00;;;7.03;100.00
18014;BME280;9132;47.946;10.394;2024-02-16T02:08:35;93950.19;;;7.02;100.00
18014;BME280;9132;47.946;10.394;2024-02-16T02:11:01;93941.50;;;7.02;100.00
18014;BME280;9132;47.946;10.394;2024-02-16T02:13:28;93939.88;;;7.01;100.00
18014;BME280;9132;47.946;10.394;2024-02-16T02:15:56;93934.16;;;6.97;100.00
18014;BME280;9132;47.946;10.394;2024-02-16T02:18:24;93932.25;;;6.91;100.00
18014;BME280;9132;47.946;10.394;2024-02-16T02:20:51;93933.59;;;6.87;100.00
18014;BME280;9132;47.946;10.394;2024-02-16T02:23:20;93933.94;;;6.84;100.00
18014;BME280;9132;47.946;10.394;2024-02-16T02:25:47;93928.59;;;6.77;100.00
18014;BME280;9132;47.946;10.394;2024-02-16T02:28:14;93930.59;;;6.75;100.00
18014;BME280;9132;47.946;10.394;2024-02-16T02:30:41;93933.38;;;6.73;100.00
18014;BME280;9132;47.946;10.394;2024-02-16T02:33:06;93930.47;;;6.68;100.00
18014;BME280;9132;47.946;10.394;2024-02-16T02:35:34;93932.44;;;6.66;100.00
18014;BME280;9132;47.946;10.394;2024-02-16T02:38:01;93923.13;;;6.64;100.00
18014;BME280;9132;47.946;10.394;2024-02-16T02:40:29;93923.16;;;6.56;100.00
18014;BME280;9132;47.946;10.394;2024-02-16T02:42:55;93918.56;;;6.58;100.00
18014;BME280;9132;47.946;10.394;2024-02-16T02:45:22;93914.50;;;6.55;100.00
18014;BME280;9132;47.946;10.394;2024-02-16T02:47:49;93919.91;;;6.54;100.00
18014;BME280;9132;47.946;10.394;2024-02-16T02:50:15;93916.84;;;6.50;100.00
18014;BME280;9132;47.946;10.394;2024-02-16T02:52:43;93905.91;;;6.46;100.00
18014;BME280;9132;47.946;10.394;2024-02-16T02:55:10;93911.13;;;6.46;100.00
18014;BME280;9132;47.946;10.394;2024-02-16T02:57:38;93915.72;;;6.44;100.00
18014;BME280;9132;47.946;10.394;2024-02-16T03:00:05;93919.63;;;6.48;100.00
18014;BME280;9132;47.946;10.394;2024-02-16T03:02:36;93918.47;;;6.51;100.00
18014;BME280;9132;47.946;10.394;2024-02-16T03:05:02;93917.66;;;6.50;100.00
18014;BME280;9132;47.946;10.394;2024-02-16T03:07:29;93924.50;;;6.52;100.00
18014;BME280;9132;47.946;10.394;2024-02-16T03:09:55;93917.31;;;6.54;100.00
18014;BME280;9132;47.946;10.394;2024-02-16T03:12:22;93917.09;;;6.55;100.00
18014;BME280;9132;47.946;10.394;2024-02-16T03:14:50;93918.56;;;6.58;100.00
18014;BME280;9132;47.946;10.394;2024-02-16T03:17:17;93917.41;;;6.60;100.00
18014;BME280;9132;47.946;10.394;2024-02-16T03:19:44;93913.78;;;6.61;100.00
18014;BME280;9132;47.946;10.394;2024-02-16T03:22:10;93911.97;;;6.62;100.00
18014;BME280;9132;47.946;10.394;2024-02-16T03:24:38;93919.03;;;6.61;100.00
18014;BME280;9132;47.946;10.394;2024-02-16T03:27:04;93918.22;;;6.61;100.00
18014;BME280;9132;47.946;10.394;2024-02-16T03:29:31;93915.59;;;6.61;100.00
18014;BME280;9132;47.946;10.394;2024-02-16T03:31:59;93919.03;;;6.61;100.00
18014;BME280;9132;47.946;10.394;2024-02-16T03:34:26;93919.84;;;6.62;100.00
18014;BME280;9132;47.946;10.394;2024-02-16T03:36:52;93916.25;;;6.63;100.00
18014;BME280;9132;47.946;10.394;2024-02-16T03:39:19;93916.41;;;6.61;100.00
18014;BME280;9132;47.946;10.394;2024-02-16T03:41:46;93919.22;;;6.60;100.00
18014;BME280;9132;47.946;10.394;2024-02-16T03:44:14;93927.44;;;6.57;100.00
18014;BME280;9132;47.946;10.394;2024-02-16T03:46:41;93927.78;;;6.54;100.00
18014;BME280;9132;47.946;10.394;2024-02-16T03:49:09;93925.97;;;6.54;100.00
18014;BME280;9132;47.946;10.394;2024-02-16T03:51:36;93928.59;;;6.54;100.00
18014;BME280;9132;47.946;10.394;2024-02-16T03:54:03;93924.50;;;6.52;100.00
18014;BME280;9132;47.946;10.394;2024-02-16T03:56:30;93929.75;;;6.52;100.00
18014;BME280;9132;47.946;10.394;2024-02-16T03:58:56;93938.63;;;6.50;100.00
18014;BME280;9132;47.946;10.394;2024-02-16T04:01:23;93938.63;;;6.50;100.00
18014;BME280;9132;47.946;10.394;2024-02-16T04:03:50;93947.81;;;6.46;100.00
18014;BME280;9132;47.946;10.394;2024-02-16T04:06:18;93945.34;;;6.45;100.00
18014;BME280;9132;47.946;10.394;2024-02-16T04:08:45;93950.78;;;6.43;100.00
18014;BME280;9132;47.946;10.394;2024-02-16T04:11:11;93952.91;;;6.40;100.00
18014;BME280;9132;47.946;10.394;2024-02-16T04:13:40;93950.84;;;6.27;100.00
18014;BME280;9132;47.946;10.394;2024-02-16T04:16:07;93957.28;;;6.24;100.00
18014;BME280;9132;47.946;10.394;2024-02-16T04:18:33;93957.44;;;6.23;100.00
18014;BME280;9132;47.946;10.394;2024-02-16T04:21:00;93952.88;;;6.17;100.00
18014;BME280;9132;47.946;10.394;2024-02-16T04:23:28;93957.50;;;6.15;100.00
18014;BME280;9132;47.946;10.394;2024-02-16T04:25:54;93962.09;;;6.13;100.00
18014;BME280;9132;47.946;10.394;2024-02-16T04:28:21;93960.16;;;6.07;100.00
18014;BME280;9132;47.946;10.394;2024-02-16T04:30:47;93958.69;;;6.04;100.00
18014;BME280;9132;47.946;10.394;2024-02-16T04:33:14;93964.72;;;6.04;100.00
18014;BME280;9132;47.946;10.394;2024-02-16T04:35:42;93962.56;;;6.16;100.00
18014;BME280;9132;47.946;10.394;2024-02-16T04:38:11;93961.06;;;6.22;100.00
18014;BME280;9132;47.946;10.394;2024-02-16T04:40:39;93971.34;;;6.23;100.00
18014;BME280;9132;47.946;10.394;2024-02-16T04:43:06;93972.31;;;6.31;100.00
18014;BME280;9132;47.946;10.394;2024-02-16T04:45:33;93968.50;;;6.33;100.00
18014;BME280;9132;47.946;10.394;2024-02-16T04:48:02;93974.75;;;6.32;100.00
18014;BME280;9132;47.946;10.394;2024-02-16T04:50:29;93971.97;;;6.34;100.00
18014;BME280;9132;47.946;10.394;2024-02-16T04:52:56;93968.34;;;6.35;100.00
18014;BME280;9132;47.946;10.394;2024-02-16T04:55:22;93979.84;;;6.34;100.00
18014;BME280;9132;47.946;10.394;2024-02-16T04:57:50;93981.34;;;6.28;100.00
18014;BME280;9132;47.946;10.394;2024-02-16T05:00:16;93979.34;;;6.30;100.00
18014;BME280;9132;47.946;10.394;2024-02-16T05:02:43;93988.88;;;6.23;100.00
18014;BME280;9132;47.946;10.394;2024-02-16T05:05:10;93987.94;;;6.16;100.00
18014;BME280;9132;47.946;10.394;2024-02-16T05:07:36;93991.88;;;6.12;100.00
18014;BME280;9132;47.946;10.394;2024-02-16T05:10:07;93986.81;;;6.10;100.00
18014;BME280;9132;47.946;10.394;2024-02-16T05:12:34;93985.53;;;6.06;100.00
18014;BME280;9132;47.946;10.394;2024-02-16T05:15:12;93989.63;;;6.09;100.00
18014;BME280;9132;47.946;10.394;2024-02-16T05:17:39;93982.72;;;6.08;100.00
18014;BME280;9132;47.946;10.394;2024-02-16T05:20:09;93979.28;;;6.07;100.00
18014;BME280;9132;47.946;10.394;2024-02-16T05:22:41;93983.06;;;6.04;100.00
18014;BME280;9132;47.946;10.394;2024-02-16T05:25:08;93989.63;;;6.00;100.00
18014;BME280;9132;47.946;10.394;2024-02-16T05:27:35;93985.72;;;5.96;100.00
18014;BME280;9132;47.946;10.394;2024-02-16T05:30:01;93989.00;;;5.90;100.00
18014;BME280;9132;47.946;10.394;2024-02-16T05:32:31;93993.25;;;5.83;100.00
18014;BME280;9132;47.946;10.394;2024-02-16T05:34:57;93993.09;;;5.76;100.00
18014;BME280;9132;47.946;10.394;2024-02-16T05:37:25;93974.34;;;5.65;100.00
18014;BME280;9132;47.946;10.394;2024-02-16T05:39:51;93985.78;;;5.72;100.00
18014;BME280;9132;47.946;10.394;2024-02-16T05:42:22;93985.78;;;5.64;100.00
18014;BME280;9132;47.946;10.394;2024-02-16T05:44:49;93988.91;;;5.59;100.00
18014;BME280;9132;47.946;10.394;2024-02-16T05:47:16;93973.06;;;5.44;100.00
18014;BME280;9132;47.946;10.394;2024-02-16T05:49:45;93984.69;;;5.50;100.00
18014;BME280;9132;47.946;10.394;2024-02-16T05:52:12;93992.22;;;5.45;100.00
18014;BME280;9132;47.946;10.394;2024-02-16T05:54:44;93991.56;;;5.43;100.00
18014;BME280;9132;47.946;10.394;2024-02-16T05:57:11;93990.72;;;5.42;100.00
18014;BME280;9132;47.946;10.394;2024-02-16T05:59:38;94002.53;;;5.38;100.00
18014;BME280;9132;47.946;10.394;2024-02-16T06:02:05;93999.28;;;5.36;100.00
18014;BME280;9132;47.946;10.394;2024-02-16T06:04:32;94009.41;;;5.39;100.00
18014;BME280;9132;47.946;10.394;2024-02-16T06:07:00;94003.00;;;5.42;100.00
18014;BME280;9132;47.946;10.394;2024-02-16T06:09:26;94003.47;;;5.45;100.00
18014;BME280;9132;47.946;10.394;2024-02-16T06:12:00;94008.72;;;5.45;100.00
18014;BME280;9132;47.946;10.394;2024-02-16T06:14:28;94009.56;;;5.46;100.00
18014;BME280;9132;47.946;10.394;2024-02-16T06:17:00;94002.84;;;5.43;100.00
18014;BME280;9132;47.946;10.394;2024-02-16T06:19:26;94020.16;;;5.52;100.00
18014;BME280;9132;47.946;10.394;2024-02-16T06:21:53;94019.19;;;5.53;100.00
18014;BME280;9132;47.946;10.394;2024-02-16T06:24:22;94014.75;;;5.54;100.00
18014;BME280;9132;47.946;10.394;2024-02-16T06:26:49;94007.75;;;5.46;100.00
18014;BME280;9132;47.946;10.394;2024-02-16T06:29:16;94015.56;;;5.54;100.00
18014;BME280;9132;47.946;10.394;2024-02-16T06:31:44;94024.09;;;5.56;100.00
18014;BME280;9132;47.946;10.394;2024-02-16T06:34:11;94016.22;;;5.56;100.00
18014;BME280;9132;47.946;10.394;2024-02-16T06:36:38;94024.09;;;5.56;100.00
18014;BME280;9132;47.946;10.394;2024-02-16T06:39:04;94024.75;;;5.58;100.00
18014;BME280;9132;47.946;10.394;2024-02-16T06:41:32;94028.00;;;5.61;100.00
18014;BME280;9132;47.946;10.394;2024-02-16T06:43:59;94038.13;;;5.64;100.00
18014;BME280;9132;47.946;10.394;2024-02-16T06:46:26;94041.41;;;5.66;100.00
18014;BME280;9132;47.946;10.394;2024-02-16T06:48:54;94037.47;;;5.70;100.00
18014;BME280;9132;47.946;10.394;2024-02-16T06:51:22;94051.88;;;5.74;100.00
18014;BME280;9132;47.946;10.394;2024-02-16T06:53:48;94041.56;;;5.80;100.00
18014;BME280;9132;47.946;10.394;2024-02-16T06:56:16;94048.56;;;5.80;100.00
18014;BME280;9132;47.946;10.394;2024-02-16T06:58:44;94043.84;;;5.84;100.00
18014;BME280;9132;47.946;10.394;2024-02-16T07:01:12;94050.34;;;5.88;100.00
18014;BME280;9132;47.946;10.394;2024-02-16T07:03:39;94049.53;;;5.95;100.00
18014;BME280;9132;47.946;10.394;2024-02-16T07:06:06;94053.28;;;6.01;100.00
18014;BME280;9132;47.946;10.394;2024-02-16T07:08:35;94047.22;;;6.09;100.00
18014;BME280;9132;47.946;10.394;2024-02-16T07:11:02;94058.66;;;6.16;100.00
18014;BME280;9132;47.946;10.394;2024-02-16T07:13:30;94055.84;;;6.17;100.00
18014;BME280;9132;47.946;10.394;2024-02-16T07:15:58;94060.25;;;6.25;100.00
18014;BME280;9132;47.946;10.394;2024-02-16T07:18:24;94061.22;;;6.32;100.00
18014;BME280;9132;47.946;10.394;2024-02-16T07:20:51;94060.34;;;6.40;100.00
18014;BME280;9132;47.946;10.394;2024-02-16T07:23:18;94062.47;;;6.44;100.00
18014;BME280;9132;47.946;10.394;2024-02-16T07:25:44;94057.84;;;6.55;100.00
18014;BME280;9132;47.946;10.394;2024-02-16T07:28:11;94057.81;;;6.63;100.00
18014;BME280;9132;47.946;10.394;2024-02-16T07:30:37;94062.16;;;6.70;100.00
18014;BME280;9132;47.946;10.394;2024-02-16T07:33:06;94058.34;;;6.81;100.00
18014;BME280;9132;47.946;10.394;2024-02-16T07:35:33;94065.34;;;6.89;100.00
18014;BME280;9132;47.946;10.394;2024-02-16T07:38:00;94067.44;;;6.93;100.00
18014;BME280;9132;47.946;10.394;2024-02-16T07:40:27;94062.63;;;7.05;100.00
18014;BME280;9132;47.946;10.394;2024-02-16T07:42:54;94075.22;;;7.10;100.00
18014;BME280;9132;47.946;10.394;2024-02-16T07:45:21;94065.81;;;7.15;100.00
18014;BME280;9132;47.946;10.394;2024-02-16T07:47:54;94071.38;;;7.20;100.00
18014;BME280;9132;47.946;10.394;2024-02-16T07:50:24;94073.63;;;7.24;100.00
18014;BME280;9132;47.946;10.394;2024-02-16T07:52:51;94067.03;;;7.28;100.00
18014;BME280;9132;47.946;10.394;2024-02-16T07:55:18;94073.59;;;7.32;100.00
18014;BME280;9132;47.946;10.394;2024-02-16T07:57:45;94072.25;;;7.36;100.00
18014;BME280;9132;47.946;10.394;2024-02-16T08:00:13;94072.34;;;7.42;100.00
18014;BME280;9132;47.946;10.394;2024-02-16T08:02:41;94061.41;;;7.39;100.00
18014;BME280;9132;47.946;10.394;2024-02-16T08:05:10;94072.28;;;7.51;100.00
18014;BME280;9132;47.946;10.394;2024-02-16T08:07:38;94068.97;;;7.57;100.00
18014;BME280;9132;47.946;10.394;2024-02-16T08:10:06;94067.72;;;7.68;100.00
18014;BME280;9132;47.946;10.394;2024-02-16T08:12:33;94071.09;;;7.76;100.00
18014;BME280;9132;47.946;10.394;2024-02-16T08:15:01;94073.53;;;7.93;100.00
18014;BME280;9132;47.946;10.394;2024-02-16T08:17:29;94068.56;;;8.12;100.00
18014;BME280;9132;47.946;10.394;2024-02-16T08:19:55;94070.22;;;8.28;100.00
18014;BME280;9132;47.946;10.394;2024-02-16T08:22:22;94073.88;;;8.42;100.00
18014;BME280;9132;47.946;10.394;2024-02-16T08:24:50;94072.88;;;8.58;100.00
18014;BME280;9132;47.946;10.394;2024-02-16T08:27:17;94076.81;;;8.69;100.00
18014;BME280;9132;47.946;10.394;2024-02-16T08:29:44;94078.78;;;8.81;100.00
18014;BME280;9132;47.946;10.394;2024-02-16T08:32:10;94082.94;;;8.91;100.00
18014;BME280;9132;47.946;10.394;2024-02-16T08:34:37;94081.19;;;8.98;100.00
18014;BME280;9132;47.946;10.394;2024-02-16T08:37:05;94086.38;;;9.06;100.00
18014;BME280;9132;47.946;10.394;2024-02-16T08:39:33;94074.09;;;9.13;100.00
18014;BME280;9132;47.946;10.394;2024-02-16T08:42:01;94086.13;;;9.22;100.00
18014;BME280;9132;47.946;10.394;2024-02-16T08:44:28;94079.75;;;9.32;100.00
18014;BME280;9132;47.946;10.394;2024-02-16T08:46:55;94085.38;;;9.50;100.00
18014;BME280;9132;47.946;10.394;2024-02-16T08:49:21;94090.28;;;9.74;100.00
18014;BME280;9132;47.946;10.394;2024-02-16T08:51:48;94098.41;;;10.08;100.00
18014;BME280;9132;47.946;10.394;2024-02-16T08:54:14;94083.50;;;10.50;100.00
18014;BME280;9132;47.946;10.394;2024-02-16T08:56:43;94086.13;;;10.91;98.62
18014;BME280;9132;47.946;10.394;2024-02-16T08:59:11;94090.94;;;11.35;98.58
18014;BME280;9132;47.946;10.394;2024-02-16T09:01:38;94090.56;;;11.72;95.54
18014;BME280;9132;47.946;10.394;2024-02-16T09:04:05;94092.44;;;11.91;94.47
18014;BME280;9132;47.946;10.394;2024-02-16T09:06:32;94107.69;;;12.22;92.34
18014;BME280;9132;47.946;10.394;2024-02-16T09:09:00;94097.69;;;12.44;89.26
18014;BME280;9132;47.946;10.394;2024-02-16T09:11:27;94097.66;;;12.58;87.54
18014;BME280;9132;47.946;10.394;2024-02-16T09:13:54;94094.59;;;12.74;85.50
18014;BME280;9132;47.946;10.394;2024-02-16T09:16:21;94093.75;;;12.80;86.89
18014;BME280;9132;47.946;10.394;2024-02-16T09:18:48;94102.47;;;12.87;86.75
18014;BME280;9132;47.946;10.394;2024-02-16T09:21:15;94101.81;;;12.98;85.51
18014;BME280;9132;47.946;10.394;2024-02-16T09:23:41;94114.81;;;13.07;85.60
18014;BME280;9132;47.946;10.394;2024-02-16T09:26:08;94104.03;;;13.08;85.70
18014;BME280;9132;47.946;10.394;2024-02-16T09:28:38;94102.78;;;13.11;86.60
18014;BME280;9132;47.946;10.394;2024-02-16T09:31:05;94107.50;;;13.09;86.88
18014;BME280;9132;47.946;10.394;2024-02-16T09:33:34;94108.91;;;13.05;86.14
18014;BME280;9132;47.946;10.394;2024-02-16T09:36:01;94110.38;;;13.01;87.96
18014;BME280;9132;47.946;10.394;2024-02-16T09:38:30;94103.47;;;12.93;88.62
18014;BME280;9132;47.946;10.394;2024-02-16T09:40:56;94113.88;;;12.88;90.69
18014;BME280;9132;47.946;10.394;2024-02-16T09:43:27;94115.72;;;12.87;89.79
18014;BME280;9132;47.946;10.394;2024-02-16T09:45:55;94123.84;;;12.86;89.46
18014;BME280;9132;47.946;10.394;2024-02-16T09:48:22;94124.28;;;12.89;89.29
18014;BME280;9132;47.946;10.394;2024-02-16T09:50:50;94121.78;;;12.94;91.09
18014;BME280;9132;47.946;10.394;2024-02-16T09:53:19;94103.47;;;12.93;90.47
18014;BME280;9132;47.946;10.394;2024-02-16T09:55:48;94116.28;;;13.03;90.45
18014;BME280;9132;47.946;10.394;2024-02-16T09:58:16;94129.28;;;13.04;89.89
18014;BME280;9132;47.946;10.394;2024-02-16T10:00:48;94126.03;;;13.09;90.26
18014;BME280;9132;47.946;10.394;2024-02-16T10:03:22;94128.47;;;13.10;89.04
18014;BME280;9132;47.946;10.394;2024-02-16T10:05:50;94132.91;;;13.16;90.09
18014;BME280;9132;47.946;10.394;2024-02-16T10:08:17;94123.13;;;13.17;89.78
18014;BME280;9132;47.946;10.394;2024-02-16T10:10:44;94132.88;;;13.30;87.15
18014;BME280;9132;47.946;10.394;2024-02-16T10:13:10;94135.34;;;13.31;87.33
18014;BME280;9132;47.946;10.394;2024-02-16T10:15:37;94140.41;;;13.33;86.34
18014;BME280;9132;47.946;10.394;2024-02-16T10:18:05;94164.88;;;13.35;86.19
18014;BME280;9132;47.946;10.394;2024-02-16T10:20:34;94143.69;;;13.35;86.90
18014;BME280;9132;47.946;10.394;2024-02-16T10:23:08;94142.44;;;13.37;86.84
18014;BME280;9132;47.946;10.394;2024-02-16T10:25:36;94137.31;;;13.42;87.06
18014;BME280;9132;47.946;10.394;2024-02-16T10:28:08;94140.53;;;13.51;86.67
18014;BME280;9132;47.946;10.394;2024-02-16T10:30:36;94139.66;;;13.64;86.49
18014;BME280;9132;47.946;10.394;2024-02-16T10:33:04;94130.22;;;13.75;86.43
18014;BME280;9132;47.946;10.394;2024-02-16T10:35:32;94139.88;;;13.94;85.82
18014;BME280;9132;47.946;10.394;2024-02-16T10:38:01;94142.09;;;13.97;84.79
18014;BME280;9132;47.946;10.394;2024-02-16T10:40:37;94139.88;;;13.94;83.35
18014;BME280;9132;47.946;10.394;2024-02-16T10:43:05;94135.59;;;13.93;84.82
18014;BME280;9132;47.946;10.394;2024-02-16T10:45:33;94135.81;;;13.91;85.69
18014;BME280;9132;47.946;10.394;2024-02-16T10:48:01;94147.22;;;13.92;83.79
18014;BME280;9132;47.946;10.394;2024-02-16T10:50:28;94151.34;;;13.88;82.63
18014;BME280;9132;47.946;10.394;2024-02-16T10:52:55;94142.41;;;13.82;81.50
18014;BME280;9132;47.946;10.394;2024-02-16T10:55:24;94142.66;;;13.74;83.14
18014;BME280;9132;47.946;10.394;2024-02-16T10:57:52;94144.28;;;13.75;82.84
18014;BME280;9132;47.946;10.394;2024-02-16T11:00:21;94120.47;;;13.68;83.99
18014;BME280;9132;47.946;10.394;2024-02-16T11:02:52;94134.06;;;13.79;84.37
18014;BME280;9132;47.946;10.394;2024-02-16T11:05:31;94136.53;;;13.74;83.35
18014;BME280;9132;47.946;10.394;2024-02-16T11:08:00;94137.56;;;13.73;83.87
18014;BME280;9132;47.946;10.394;2024-02-16T11:10:27;94138.81;;;13.70;82.29
18014;BME280;9132;47.946;10.394;2024-02-16T11:12:55;94151.69;;;13.66;81.54
18014;BME280;9132;47.946;10.394;2024-02-16T11:15:30;94132.94;;;13.61;82.36
18014;BME280;9132;47.946;10.394;2024-02-16T11:17:57;94141.50;;;13.63;83.53
18014;BME280;9132;47.946;10.394;2024-02-16T11:20:25;94156.97;;;13.66;81.68
18014;BME280;9132;47.946;10.394;2024-02-16T11:22:52;94141.06;;;13.66;82.69
18014;BME280;9132;47.946;10.394;2024-02-16T11:25:19;94137.19;;;13.69;81.71
18014;BME280;9132;47.946;10.394;2024-02-16T11:27:58;94140.41;;;13.71;80.75
18014;BME280;9132;47.946;10.394;2024-02-16T11:30:24;94137.94;;;13.76;81.34
18014;BME280;9132;47.946;10.394;2024-02-16T11:32:51;94122.47;;;13.73;81.67
18014;BME280;9132;47.946;10.394;2024-02-16T11:35:18;94138.72;;;13.83;79.45
18014;BME280;9132;47.946;10.394;2024-02-16T11:37:45;94142.34;;;13.89;80.61
18014;BME280;9132;47.946;10.394;2024-02-16T11:40:12;94140.69;;;13.95;80.45
18014;BME280;9132;47.946;10.394;2024-02-16T11:42:39;94141.88;;;13.99;79.12
18014;BME280;9132;47.946;10.394;2024-02-16T11:45:11;94143.13;;;13.96;79.16
18014;BME280;9132;47.946;10.394;2024-02-16T11:47:38;94139.44;;;13.97;80.53
18014;BME280;9132;47.946;10.394;2024-02-16T11:50:05;94141.44;;;14.02;78.94
18014;BME280;9132;47.946;10.394;2024-02-16T11:52:32;94138.00;;;14.01;79.42
18014;BME280;9132;47.946;10.394;2024-02-16T11:54:59;94137.94;;;14.08;79.73
18014;BME280;9132;47.946;10.394;2024-02-16T11:57:29;94139.97;;;14.12;79.35
18014;BME280;9132;47.946;10.394;2024-02-16T11:59:56;94142.31;;;14.21;77.82
18014;BME280;9132;47.946;10.394;2024-02-16T12:02:24;94135.66;;;14.11;78.41
18014;BME280;9132;47.946;10.394;2024-02-16T12:04:57;94133.38;;;14.15;79.07
18014;BME280;9132;47.946;10.394;2024-02-16T12:07:25;94139.09;;;14.19;78.88
18014;BME280;9132;47.946;10.394;2024-02-16T12:09:56;94129.50;;;14.18;80.13
18014;BME280;9132;47.946;10.394;2024-02-16T12:12:22;94135.19;;;14.21;77.38
18014;BME280;9132;47.946;10.394;2024-02-16T12:14:49;94134.38;;;14.21;80.29
18014;BME280;9132;47.946;10.394;2024-02-16T12:17:16;94126.16;;;14.29;80.55
18014;BME280;9132;47.946;10.394;2024-02-16T12:19:45;94139.63;;;14.27;78.58
18014;BME280;9132;47.946;10.394;2024-02-16T12:22:16;94139.63;;;14.27;79.06
18014;BME280;9132;47.946;10.394;2024-02-16T12:24:44;94138.88;;;14.20;77.53
18014;BME280;9132;47.946;10.394;2024-02-16T12:27:10;94141.78;;;14.12;78.36
18014;BME280;9132;47.946;10.394;2024-02-16T12:29:38;94138.97;;;14.07;80.33
18014;BME280;9132;47.946;10.394;2024-02-16T12:32:05;94133.25;;;14.10;81.26
18014;BME280;9132;47.946;10.394;2024-02-16T12:34:32;94138.69;;;14.15;80.16
18014;BME280;9132;47.946;10.394;2024-02-16T12:37:00;94153.22;;;14.12;78.49
18014;BME280;9132;47.946;10.394;2024-02-16T12:39:27;94145.69;;;14.09;79.00
18014;BME280;9132;47.946;10.394;2024-02-16T12:41:54;94142.63;;;14.12;79.51
18014;BME280;9132;47.946;10.394;2024-02-16T12:44:20;94139.97;;;14.12;79.36
18014;BME280;9132;47.946;10.394;2024-02-16T12:46:47;94138.16;;;14.06;80.05
18014;BME280;9132;47.946;10.394;2024-02-16T12:49:13;94141.81;;;14.05;80.08
18014;BME280;9132;47.946;10.394;2024-02-16T12:51:41;94146.13;;;14.06;81.49
18014;BME280;9132;47.946;10.394;2024-02-16T12:54:09;94144.06;;;14.08;79.38
18014;BME280;9132;47.946;10.394;2024-02-16T12:56:39;94144.75;;;13.97;80.70
18014;BME280;9132;47.946;10.394;2024-02-16T12:59:05;94142.31;;;13.96;81.69
18014;BME280;9132;47.946;10.394;2024-02-16T13:01:32;94143.53;;;14.00;82.25